Time;durP1;ratioP1;P1;durP2;ratioP2;P2;SDS_P1;SDS_P2;PMS_P1;PMS_P2;Temp;Humidity;BMP_temperature;BMP_pressure;BME280_temperature;BME280_humidity;BME280_pressure;Samples;Min_cycle;Max_cycle;Signal;HPM_P1;HPM_P2
2024/01/24 00:01:22;;;;;;;61.67;29.50;;;;;;;29.27;76.47;101350.69;5055137;28;70333;-38
2024/01/24 00:03:53;;;;;;;65.22;30.77;;;;;;;29.29;77.13;101354.88;5035793;28;66610;-38
2024/01/24 00:06:24;;;;;;;64.18;27.95;;;;;;;29.24;76.81;101329.47;5061366;28;69409;-40
2024/01/24 00:08:55;;;;;;;59.15;26.80;;;;;;;29.37;75.64;101354.72;5054394;28;65747;-38
2024/01/24 00:11:29;;;;;;;57.78;25.88;;;;;;;29.42;74.83;101356.84;5044629;28;70037;-41
2024/01/24 00:13:59;;;;;;;52.08;26.27;;;;;;;29.31;77.07;101346.56;5063160;28;65616;-39
2024/01/24 00:16:30;;;;;;;63.13;26.35;;;;;;;29.49;76.46;101364.97;5045660;28;70465;-39
2024/01/24 00:19:01;;;;;;;60.65;24.73;;;;;;;29.47;77.16;101364.31;5042575;28;66433;-40
2024/01/24 00:21:32;;;;;;;61.30;25.20;;;;;;;29.54;74.78;101373.31;5035936;28;69530;-40
2024/01/24 00:24:04;;;;;;;50.50;23.48;;;;;;;29.55;76.89;101374.97;5038434;28;68252;-41
2024/01/24 00:26:37;;;;;;;57.08;23.92;;;;;;;29.55;77.37;101380.38;5043698;28;71429;-41
2024/01/24 00:29:08;;;;;;;59.42;22.27;;;;;;;29.57;76.96;101384.56;5038768;28;66683;-41
2024/01/24 00:31:41;;;;;;;41.45;21.25;;;;;;;29.59;77.02;101384.38;5043660;28;70312;-40
2024/01/24 00:34:12;;;;;;;43.22;20.80;;;;;;;29.59;76.91;101381.66;5042873;28;66740;-41
2024/01/24 00:36:43;;;;;;;41.30;19.60;;;;;;;29.53;76.75;101377.03;5038202;28;70224;-41
2024/01/24 00:39:14;;;;;;;49.03;20.52;;;;;;;29.65;76.35;101383.59;5049072;28;65343;-41
2024/01/24 00:41:46;;;;;;;41.75;18.98;;;;;;;29.65;76.64;101389.00;5055818;28;69496;-41
2024/01/24 00:44:17;;;;;;;;;;;;;;;29.51;77.10;101384.53;5041058;28;66665;-42
2024/01/24 00:46:47;;;;;;;46.47;20.50;;;;;;;29.65;76.77;101386.31;5040822;28;70151;-40
2024/01/24 00:49:19;;;;;;;46.53;19.10;;;;;;;29.67;76.46;101392.34;5042628;28;67539;-41
2024/01/24 00:51:50;;;;;;;46.80;19.77;;;;;;;29.64;76.40;101384.63;5040014;28;69939;-41
2024/01/24 00:54:21;;;;;;;42.38;18.80;;;;;;;29.66;76.24;101387.97;5039119;28;65633;-41
2024/01/24 00:56:52;;;;;;;38.08;18.38;;;;;;;29.68;76.42;101396.72;5043083;28;70255;-41
2024/01/24 00:59:23;;;;;;;34.35;17.38;;;;;;;29.68;72.20;101394.00;5062622;28;66385;-40
2024/01/24 01:01:53;;;;;;;24.90;14.95;;;;;;;29.69;72.06;101411.06;5031532;28;70238;-40
2024/01/24 01:04:24;;;;;;;27.13;15.80;;;;;;;29.66;71.58;101404.19;5057591;28;68133;-40
2024/01/24 01:06:55;;;;;;;30.52;16.00;;;;;;;29.67;71.53;101405.88;5038932;28;70279;-40
2024/01/24 01:09:26;;;;;;;23.38;14.40;;;;;;;29.70;71.70;101416.28;5040136;28;65845;-40
2024/01/24 01:11:57;;;;;;;19.17;14.15;;;;;;;29.70;71.48;101416.28;5047196;28;70686;-41
2024/01/24 01:14:28;;;;;;;22.95;14.50;;;;;;;29.67;71.59;101411.28;5040640;28;66212;-40
2024/01/24 01:16:59;;;;;;;32.00;15.43;;;;;;;29.66;71.61;101404.19;5040254;28;70400;-41
2024/01/24 01:19:29;;;;;;;22.15;14.60;;;;;;;29.74;71.25;101422.94;5043770;28;66733;-40
2024/01/24 01:22:01;;;;;;;24.95;15.07;;;;;;;29.72;70.86;101419.59;5059403;28;69979;-42
2024/01/24 01:24:32;;;;;;;23.42;14.68;;;;;;;29.76;70.87;101420.06;5059483;28;65365;-42
2024/01/24 01:27:03;;;;;;;25.90;15.27;;;;;;;29.76;71.27;101417.34;5058906;28;70489;-42
2024/01/24 01:29:34;;;;;;;21.05;14.82;;;;;;;29.25;70.97;101337.38;5043189;28;65975;-41
2024/01/24 01:32:05;;;;;;;19.88;13.95;;;;;;;29.78;71.05;101418.81;5039658;28;70504;-42
2024/01/24 01:34:36;;;;;;;21.90;14.70;;;;;;;29.76;70.74;101420.06;5049547;28;65734;-40
2024/01/24 01:37:06;;;;;;;25.73;14.85;;;;;;;29.32;70.81;101354.47;5033063;28;70220;-40
2024/01/24 01:39:37;;;;;;;20.10;13.88;;;;;;;29.80;70.83;101424.84;5064805;28;65883;-41
2024/01/24 01:42:08;;;;;;;19.80;13.68;;;;;;;29.81;70.33;101426.53;5037400;28;70683;-40
2024/01/24 01:44:46;;;;;;;17.77;13.82;;;;;;;29.81;71.07;101429.25;5039993;28;65317;-40
2024/01/24 01:47:17;;;;;;;24.85;14.50;;;;;;;29.83;70.25;101421.75;5039709;28;70554;-40
2024/01/24 01:49:48;;;;;;;22.80;14.50;;;;;;;29.76;70.77;101410.06;5037944;28;67054;-40
2024/01/24 01:52:21;;;;;;;23.15;13.85;;;;;;;29.50;70.38;101356.63;5022440;28;71383;-41
2024/01/24 01:54:52;;;;;;;21.63;13.95;;;;;;;29.84;70.77;101418.03;5046053;28;66454;-40
2024/01/24 01:57:24;;;;;;;16.57;13.17;;;;;;;29.84;70.57;101415.31;5038373;28;70595;-40
2024/01/24 01:59:54;;;;;;;17.40;12.83;;;;;;;29.84;70.26;101420.72;5050893;28;66316;-41
2024/01/24 02:02:25;;;;;;;15.73;13.27;;;;;;;29.86;70.56;101422.38;5035772;28;69184;-40
2024/01/24 02:04:56;;;;;;;16.30;12.35;;;;;;;29.91;70.08;101419.91;5049745;28;65946;-41
2024/01/24 02:07:26;;;;;;;21.42;12.60;;;;;;;29.90;70.47;101423.66;5054303;28;70565;-40
2024/01/24 02:09:57;;;;;;;18.27;13.60;;;;;;;29.92;70.38;101418.88;5048782;28;66353;-40
2024/01/24 02:12:28;;;;;;;16.48;13.07;;;;;;;29.92;70.12;101418.88;5029949;28;69532;-41
2024/01/24 02:14:59;;;;;;;15.00;13.02;;;;;;;29.93;70.17;101417.84;5041996;28;66542;-41
2024/01/24 02:17:30;;;;;;;21.13;12.77;;;;;;;29.95;70.31;101410.34;5038036;28;70276;-40
2024/01/24 02:20:02;;;;;;;16.10;13.23;;;;;;;29.96;70.09;101414.75;5051955;28;67581;-41
2024/01/24 02:22:32;;;;;;;;;;;;;;;29.66;70.83;101420.41;5038659;28;70002;-41
2024/01/24 02:25:04;;;;;;;12.13;10.68;;;;;;;29.94;69.93;101422.22;5040941;28;65632;-40
2024/01/24 02:27:35;;;;;;;19.10;12.00;;;;;;;29.94;70.42;101414.94;5041359;28;69336;-40
2024/01/24 02:30:06;;;;;;;13.52;11.48;;;;;;;29.96;70.23;101403.91;5042145;28;66058;-45
2024/01/24 02:32:39;;;;;;;13.70;11.65;;;;;;;29.96;69.68;101404.75;5034203;28;70670;-40
2024/01/24 02:35:10;;;;;;;16.20;12.30;;;;;;;29.72;69.81;101354.72;5036638;28;66265;-40
2024/01/24 02:37:41;;;;;;;17.00;11.65;;;;;;;30.05;70.10;101410.81;5035097;28;70600;-42
2024/01/24 02:40:11;;;;;;;15.50;12.05;;;;;;;30.06;69.60;101404.34;5038763;28;66280;-41
2024/01/24 02:43:03;;;;;;;15.60;11.73;;;;;;;30.06;69.91;101398.94;5054071;28;69979;-48
2024/01/24 02:45:34;;;;;;;12.70;11.27;;;;;;;30.07;69.77;101400.63;5055869;28;66657;-40
2024/01/24 02:48:06;;;;;;;14.02;11.85;;;;;;;30.10;69.76;101388.56;5071773;28;70302;-42
2024/01/24 02:50:38;;;;;;;11.68;10.52;;;;;;;30.10;70.09;101389.41;5045757;28;66399;-41
2024/01/24 02:53:09;;;;;;;14.55;10.98;;;;;;;30.15;69.89;101391.50;5057782;28;70767;-41
2024/01/24 02:55:40;;;;;;;14.10;11.07;;;;;;;30.16;69.94;101385.88;5045207;28;66207;-41
2024/01/24 02:58:10;;;;;;;16.67;11.18;;;;;;;30.19;69.80;101385.47;5037776;28;70637;-41
2024/01/24 03:00:41;;;;;;;12.55;10.63;;;;;;;30.20;69.64;101389.88;5058606;28;66080;-41
2024/01/24 03:03:12;;;;;;;10.75;9.85;;;;;;;30.20;69.49;101379.03;5053797;28;69210;-41
2024/01/24 03:05:43;;;;;;;13.10;10.93;;;;;;;30.17;69.23;101365.91;5038370;28;65728;-41
2024/01/24 03:08:14;;;;;;;12.38;11.10;;;;;;;30.25;69.46;101379.25;5039555;28;70295;-40
2024/01/24 03:10:48;;;;;;;12.20;10.63;;;;;;;30.27;69.72;101385.31;5036554;28;64842;-40
2024/01/24 03:13:19;;;;;;;14.88;10.90;;;;;;;30.26;69.42;101378.25;5028380;28;70209;-40
2024/01/24 03:15:50;;;;;;;11.35;10.25;;;;;;;29.82;69.16;101311.91;5056513;28;66052;-40
2024/01/24 03:18:23;;;;;;;12.27;10.65;;;;;;;30.32;69.44;101386.59;5038727;28;70719;-40
2024/01/24 03:20:54;;;;;;;12.02;10.52;;;;;;;30.24;69.17;101361.38;5054642;28;65949;-40
2024/01/24 03:23:26;;;;;;;11.85;10.70;;;;;;;30.32;69.13;101364.94;5039625;28;69236;-41
2024/01/24 03:25:56;;;;;;;15.52;10.02;;;;;;;30.38;69.27;101366.81;5052299;28;64918;-46
2024/01/24 03:28:27;;;;;;;14.15;10.65;;;;;;;30.29;69.15;101344.53;5039780;28;70370;-41
2024/01/24 03:31:02;;;;;;;11.60;10.48;;;;;;;30.43;68.79;101353.50;5048325;28;42889;-41
2024/01/24 03:33:33;;;;;;;11.45;10.25;;;;;;;30.44;68.76;101355.16;5055318;28;70279;-39
2024/01/24 03:36:04;;;;;;;10.45;9.55;;;;;;;30.47;68.74;101357.47;5048479;28;66114;-41
2024/01/24 03:38:35;;;;;;;10.27;9.38;;;;;;;30.48;68.90;101359.16;5056903;28;71443;-41
2024/01/24 03:41:07;;;;;;;11.13;10.07;;;;;;;30.47;68.93;101354.75;5031308;28;66053;-40
2024/01/24 03:43:40;;;;;;;11.27;10.13;;;;;;;30.46;68.93;101344.97;5056844;28;70462;-41
2024/01/24 03:46:12;;;;;;;16.17;10.43;;;;;;;30.56;69.00;101361.63;5040410;28;65950;-41
2024/01/24 03:48:42;;;;;;;10.15;9.10;;;;;;;30.56;69.16;101350.78;5052163;28;69623;-42
2024/01/24 03:51:13;;;;;;;11.17;10.13;;;;;;;30.47;68.98;101333.09;5044308;28;67227;-41
2024/01/24 03:53:48;;;;;;;13.02;10.00;;;;;;;30.57;68.63;101347.06;5024117;28;69407;-42
2024/01/24 03:56:21;;;;;;;11.50;9.93;;;;;;;30.64;68.31;101347.06;5043420;28;65491;-41
2024/01/24 03:58:51;;;;;;;10.10;9.20;;;;;;;30.64;68.73;101342.47;5047682;28;69595;-41
2024/01/24 04:01:22;;;;;;;11.00;8.82;;;;;;;30.67;68.56;101343.94;5046204;28;66968;-41
2024/01/24 04:03:54;;;;;;;10.70;9.80;;;;;;;30.51;68.56;101307.28;5047682;28;69222;-40
2024/01/24 04:06:25;;;;;;;;;;;;;;;30.42;68.85;101339.16;5049047;28;66355;-42
2024/01/24 04:08:55;;;;;;;10.90;9.80;;;;;;;30.70;68.84;101336.25;5045060;28;70398;-41
2024/01/24 04:11:26;;;;;;;9.63;8.80;;;;;;;30.70;68.44;101320.00;5051520;28;66074;-41
2024/01/24 04:13:57;;;;;;;10.13;9.18;;;;;;;30.71;68.38;101313.53;5062400;28;70780;-40
2024/01/24 04:16:28;;;;;;;10.93;9.83;;;;;;;30.77;68.27;101319.16;5045685;28;66233;-40
2024/01/24 04:18:59;;;;;;;10.75;9.77;;;;;;;30.82;68.34;101322.09;5042139;28;69599;-41
2024/01/24 04:21:30;;;;;;;10.73;9.63;;;;;;;30.78;68.28;101307.28;5040495;28;65677;-40
2024/01/24 04:24:02;;;;;;;10.35;8.82;;;;;;;30.84;67.87;101303.75;5039287;28;70495;-45
2024/01/24 04:26:33;;;;;;;9.70;9.02;;;;;;;30.75;68.24;101277.91;5064627;28;67149;-41
2024/01/24 04:29:05;;;;;;;9.93;8.93;;;;;;;30.79;67.84;101284.59;5051418;28;70475;-40
2024/01/24 04:31:42;;;;;;;10.15;9.15;;;;;;;30.91;67.99;101293.75;5030132;28;65672;-42
2024/01/24 04:34:13;;;;;;;9.48;8.68;;;;;;;30.90;67.74;101281.25;5046408;28;70102;-42
2024/01/24 04:36:44;;;;;;;10.05;9.23;;;;;;;30.94;67.65;101283.31;5044120;28;66221;-42
2024/01/24 04:39:16;;;;;;;9.27;8.60;;;;;;;30.81;67.70;101250.00;5043832;28;69832;-41
2024/01/24 04:41:47;;;;;;;9.65;8.80;;;;;;;30.96;67.72;101272.28;5041921;28;65759;-41
2024/01/24 04:44:21;;;;;;;9.02;8.13;;;;;;;30.97;68.17;101265.81;5050443;28;70145;-41
2024/01/24 04:46:52;;;;;;;9.80;8.82;;;;;;;30.98;68.08;101262.06;5054265;28;66312;-40
2024/01/24 04:49:22;;;;;;;9.38;8.57;;;;;;;31.03;67.71;101259.53;5052335;28;70365;-41
2024/01/24 04:52:08;;;;;;;9.02;8.23;;;;;;;31.04;67.81;101260.41;5049886;28;66115;-40
2024/01/24 04:54:41;;;;;;;12.07;9.30;;;;;;;31.05;67.58;101257.44;5033929;28;70754;-40
2024/01/24 04:57:14;;;;;;;10.05;8.90;;;;;;;31.07;67.90;101251.84;5052844;28;65895;-41
2024/01/24 04:59:44;;;;;;;;;;;;;;;30.82;68.10;101243.56;5048350;28;69872;-40
2024/01/24 05:02:26;;;;;;;10.40;9.35;;;;;;;31.05;67.50;101240.38;5059047;28;66092;-41
2024/01/24 05:04:56;;;;;;;8.85;8.05;;;;;;;31.10;67.63;101233.28;5052894;28;70685;-41
2024/01/24 05:07:28;;;;;;;7.88;7.38;;;;;;;31.12;67.32;101219.50;5040454;28;66078;-41
2024/01/24 05:09:59;;;;;;;8.95;8.25;;;;;;;31.12;67.52;101214.94;5041626;28;70056;-41
2024/01/24 05:12:31;;;;;;;9.75;8.77;;;;;;;31.14;67.33;101210.09;5069699;28;66334;-41
2024/01/24 05:15:02;;;;;;;9.15;8.32;;;;;;;31.15;67.37;101209.06;5059446;28;69931;-41
2024/01/24 05:17:33;;;;;;;8.40;7.78;;;;;;;31.20;67.20;101210.28;5058935;28;65729;-41
2024/01/24 05:20:06;;;;;;;8.88;8.15;;;;;;;31.21;67.37;101198.44;5061647;28;70145;-41
2024/01/24 05:22:36;;;;;;;9.02;8.30;;;;;;;31.23;67.20;101196.31;5060851;28;66442;-42
2024/01/24 05:25:08;;;;;;;8.98;8.07;;;;;;;31.23;67.14;101189.03;5076393;28;70254;-42
2024/01/24 05:27:39;;;;;;;8.85;8.15;;;;;;;31.23;66.92;101178.19;5060533;28;65287;-41
2024/01/24 05:30:11;;;;;;;10.07;8.27;;;;;;;31.26;67.28;101174.19;5065933;28;68695;-41
2024/01/24 05:32:59;;;;;;;8.93;8.23;;;;;;;31.27;67.15;101175.88;5040500;28;66479;-41
2024/01/24 05:35:30;;;;;;;9.40;7.75;;;;;;;31.30;66.71;101170.03;5058784;28;70906;-41
2024/01/24 05:38:01;;;;;;;8.55;7.85;;;;;;;31.28;66.73;101147.72;5060377;28;65950;-41
2024/01/24 05:40:32;;;;;;;7.85;7.15;;;;;;;31.32;66.93;101143.53;5044807;28;70117;-42
2024/01/24 05:43:04;;;;;;;9.43;7.20;;;;;;;31.20;66.89;101123.56;5039421;28;65312;-41
2024/01/24 05:45:35;;;;;;;8.05;7.35;;;;;;;31.32;67.13;101148.97;5040519;28;70135;-40
2024/01/24 05:48:06;;;;;;;8.38;7.03;;;;;;;31.38;66.41;101142.69;5043194;28;65801;-42
2024/01/24 05:50:37;;;;;;;7.38;6.75;;;;;;;31.38;66.64;101123.72;5038217;28;68737;-40
2024/01/24 05:53:07;;;;;;;7.88;7.38;;;;;;;31.41;66.26;101120.56;5054301;28;65407;-42
2024/01/24 05:55:38;;;;;;;8.43;7.75;;;;;;;31.44;66.65;101119.31;5060641;28;69583;-41
2024/01/24 05:58:09;;;;;;;7.83;7.03;;;;;;;31.46;66.33;101114.50;5045451;28;65258;-41
2024/01/24 06:00:40;;;;;;;7.80;7.20;;;;;;;31.49;66.33;101112.19;5045318;28;69615;-40
2024/01/24 06:03:11;;;;;;;9.40;6.97;;;;;;;31.52;66.25;101102.78;5036442;28;65894;-44
2024/01/24 06:05:42;;;;;;;7.53;6.97;;;;;;;31.53;66.17;101097.13;5056369;28;69597;-40
2024/01/24 06:08:13;;;;;;;7.85;7.15;;;;;;;31.53;66.06;101091.69;5039689;28;65607;-41
2024/01/24 06:10:44;;;;;;;7.93;7.20;;;;;;;31.54;66.27;101085.25;5042476;28;69918;-42
2024/01/24 06:13:14;;;;;;;8.57;7.80;;;;;;;31.58;65.83;101078.31;5021882;28;66996;-40
2024/01/24 06:15:46;;;;;;;7.60;7.03;;;;;;;31.59;66.35;101069.16;5036513;28;70021;-41
2024/01/24 06:18:17;;;;;;;8.80;7.40;;;;;;;31.63;65.96;101071.41;5054427;28;65413;-40
2024/01/24 06:20:47;;;;;;;7.80;6.93;;;;;;;31.63;66.23;101057.84;5068669;28;70312;-42
2024/01/24 06:23:19;;;;;;;10.03;7.67;;;;;;;31.64;66.11;101048.66;5027947;28;66795;-41
2024/01/24 06:25:50;;;;;;;8.60;7.85;;;;;;;31.52;65.85;101035.00;5040981;28;70004;-41
2024/01/24 06:28:21;;;;;;;7.18;6.53;;;;;;;31.67;65.67;101050.94;5055455;28;67064;-41
2024/01/24 06:30:52;;;;;;;8.50;7.70;;;;;;;31.72;65.60;101042.97;5038842;28;70443;-39
2024/01/24 06:33:26;;;;;;;8.07;7.32;;;;;;;31.75;65.62;101034.38;5040765;28;66353;-43
2024/01/24 06:35:58;;;;;;;7.70;7.20;;;;;;;31.75;65.65;101034.38;5040019;28;69614;-41
2024/01/24 06:38:29;;;;;;;7.63;7.07;;;;;;;31.77;65.37;101027.69;5041427;28;65904;-41
2024/01/24 06:41:00;;;;;;;6.82;6.40;;;;;;;31.79;65.61;101016.63;5058500;28;70427;-42
2024/01/24 06:43:31;;;;;;;7.05;6.55;;;;;;;31.82;65.66;101018.88;5049760;28;66359;-41
2024/01/24 06:46:05;;;;;;;7.55;6.95;;;;;;;31.84;65.34;101005.91;5057278;28;70080;-41
2024/01/24 06:48:36;;;;;;;7.35;6.70;;;;;;;31.80;65.29;100994.69;5041829;28;66142;-46
2024/01/24 06:51:12;;;;;;;7.90;7.32;;;;;;;31.89;65.38;101000.63;5005550;28;70094;-41
2024/01/24 06:53:43;;;;;;;7.07;6.57;;;;;;;31.91;65.28;100995.84;5040000;28;66690;-41
2024/01/24 06:56:13;;;;;;;8.35;6.82;;;;;;;31.95;65.08;100988.09;5041019;28;69671;-42
2024/01/24 06:58:44;;;;;;;7.32;6.75;;;;;;;31.89;65.47;100992.50;5039816;28;66429;-42
2024/01/24 07:01:15;;;;;;;9.07;7.03;;;;;;;31.98;65.10;100996.63;5039613;28;70398;-41
2024/01/24 07:03:46;;;;;;;7.50;6.85;;;;;;;32.03;65.22;100993.22;5050520;28;66506;-43
2024/01/24 07:06:17;;;;;;;7.13;6.63;;;;;;;31.97;65.14;100978.66;5040539;28;70015;-41
2024/01/24 07:08:48;;;;;;;6.75;6.30;;;;;;;32.07;65.03;100985.44;5038421;28;66546;-41
2024/01/24 07:11:19;;;;;;;7.28;6.40;;;;;;;32.08;65.09;100978.97;5053533;28;70454;-40
2024/01/24 07:13:50;;;;;;;6.37;5.93;;;;;;;32.11;65.08;100978.53;5035073;28;66782;-41
2024/01/24 07:16:20;;;;;;;6.97;6.47;;;;;;;32.15;64.81;100977.00;5047782;28;69583;-40
2024/01/24 07:18:51;;;;;;;6.90;6.45;;;;;;;32.16;64.82;100970.53;5046963;28;66147;-41
2024/01/24 07:21:22;;;;;;;6.57;6.15;;;;;;;32.18;64.62;100962.97;5041515;28;70310;-41
2024/01/24 07:23:53;;;;;;;7.03;6.47;;;;;;;32.22;64.72;100964.19;5037730;28;66097;-41
2024/01/24 07:26:24;;;;;;;7.30;6.47;;;;;;;32.23;64.53;100960.41;5052021;28;69766;-41
2024/01/24 07:28:55;;;;;;;6.22;5.72;;;;;;;32.20;64.91;100950.00;5044827;28;66637;-40
2024/01/24 07:31:25;;;;;;;9.20;6.05;;;;;;;32.27;64.11;100945.34;5040545;28;69667;-40
2024/01/24 07:33:56;;;;;;;6.80;6.22;;;;;;;32.31;64.37;100954.69;5040525;28;66683;-40
2024/01/24 07:36:27;;;;;;;6.72;6.32;;;;;;;32.33;64.54;100949.84;5047067;28;69160;-41
2024/01/24 07:38:58;;;;;;;7.30;6.75;;;;;;;32.31;64.34;100945.72;5064851;28;66727;-41
2024/01/24 07:41:29;;;;;;;7.43;6.80;;;;;;;32.32;64.19;100937.34;5042681;28;70486;-41
2024/01/24 07:44:00;;;;;;;6.60;6.05;;;;;;;32.44;64.14;100957.22;5061054;28;65557;-41
2024/01/24 07:46:32;;;;;;;6.22;5.70;;;;;;;32.47;64.29;100948.66;5062178;28;70727;-41
2024/01/24 07:49:03;;;;;;;6.30;5.90;;;;;;;32.49;64.16;100951.97;5047661;28;65141;-41
2024/01/24 07:51:34;;;;;;;6.30;5.85;;;;;;;32.53;64.05;100946.91;5057995;28;69198;-42
2024/01/24 07:54:06;;;;;;;5.97;5.47;;;;;;;32.57;63.92;100947.25;5062023;28;66286;-42
2024/01/24 07:56:36;;;;;;;6.07;5.67;;;;;;;32.60;64.08;100942.22;5057320;28;69942;-42
2024/01/24 07:59:08;;;;;;;5.75;5.30;;;;;;;32.63;63.98;100943.66;5053700;28;65704;-41
2024/01/24 08:01:39;;;;;;;5.57;5.28;;;;;;;32.68;63.96;100941.03;5059821;28;70222;-41
2024/01/24 08:04:10;;;;;;;5.20;4.90;;;;;;;32.71;63.91;100941.44;5053657;28;66375;-41
2024/01/24 08:06:41;;;;;;;6.00;5.60;;;;;;;32.74;63.91;100934.72;5037686;28;71343;-42
2024/01/24 08:09:12;;;;;;;5.75;5.35;;;;;;;32.76;63.46;100938.00;5044657;28;66142;-41
2024/01/24 08:11:44;;;;;;;6.28;5.72;;;;;;;32.84;63.61;100945.00;5046327;28;70621;-41
2024/01/24 08:14:16;;;;;;;6.05;5.65;;;;;;;32.84;63.53;100934.94;5039692;28;65865;-41
2024/01/24 08:17:05;;;;;;;6.75;6.15;;;;;;;32.86;62.35;100942.88;5032366;28;69922;-42
2024/01/24 08:19:36;;;;;;;6.95;5.40;;;;;;;32.92;63.17;100940.06;5043039;28;65533;-41
2024/01/24 08:22:07;;;;;;;6.73;5.17;;;;;;;32.93;63.33;100925.41;5043640;28;69189;-40
2024/01/24 08:24:38;;;;;;;5.13;4.63;;;;;;;33.01;63.44;100937.84;5044691;28;66748;-41
2024/01/24 08:27:09;;;;;;;5.23;4.83;;;;;;;33.08;63.46;100932.31;5042500;28;69859;-41
2024/01/24 08:29:40;;;;;;;6.30;5.75;;;;;;;33.12;63.41;100941.66;5042222;28;65519;-41
2024/01/24 08:32:11;;;;;;;5.65;5.25;;;;;;;33.12;63.13;100937.03;5036163;28;69313;-41
2024/01/24 08:34:43;;;;;;;5.67;5.00;;;;;;;33.21;63.24;100945.72;5030924;28;66304;-40
2024/01/24 08:37:13;;;;;;;;;;;;;;;33.06;62.10;100953.47;5049840;28;70027;-40
2024/01/24 08:39:44;;;;;;;5.25;4.75;;;;;;;33.26;63.26;100948.53;5052642;28;66734;-41
2024/01/24 08:42:15;;;;;;;5.37;4.87;;;;;;;33.31;63.09;100962.25;5066633;28;69100;-41
2024/01/24 08:44:46;;;;;;;5.88;5.38;;;;;;;33.34;62.84;100955.50;5042784;28;65964;-42
2024/01/24 08:47:17;;;;;;;5.13;4.73;;;;;;;33.35;62.88;100959.91;5066724;28;70058;-42
2024/01/24 08:49:50;;;;;;;5.45;5.05;;;;;;;33.40;62.82;100951.03;5065512;28;66397;-41
2024/01/24 08:52:20;;;;;;;7.07;5.15;;;;;;;33.49;62.86;100963.19;5056936;28;70394;-41
2024/01/24 08:54:52;;;;;;;5.05;4.70;;;;;;;33.49;62.86;100965.91;5035829;28;65171;-42
2024/01/24 08:57:24;;;;;;;;;;;;;;;33.36;61.97;100970.53;5071153;28;69015;-41
2024/01/24 08:59:56;;;;;;;5.05;4.60;;;;;;;33.52;62.78;100962.75;5053361;28;66465;-41
2024/01/24 09:02:27;;;;;;;5.05;4.65;;;;;;;33.61;62.62;100983.09;5067740;28;70104;-41
2024/01/24 09:04:58;;;;;;;4.87;4.47;;;;;;;33.59;62.68;100968.91;5046217;28;66489;-40
2024/01/24 09:07:30;;;;;;;7.15;4.60;;;;;;;33.69;62.62;100981.94;5050218;28;69327;-41
2024/01/24 09:10:03;;;;;;;9.48;3.92;;;;;;;33.71;62.12;100994.22;5046650;28;66074;-41
2024/01/24 09:12:34;;;;;;;5.65;4.63;;;;;;;33.71;62.41;100980.63;5042566;28;70567;-40
2024/01/24 09:15:05;;;;;;;4.90;4.23;;;;;;;33.81;62.48;101007.22;5047986;28;65891;-40
2024/01/24 09:17:37;;;;;;;10.48;5.18;;;;;;;33.66;61.68;100996.81;5037496;28;70662;-40
2024/01/24 09:20:09;;;;;;;12.85;5.45;;;;;;;33.50;62.68;100997.50;5036186;28;65254;-42
2024/01/24 09:22:40;;;;;;;7.32;5.00;;;;;;;33.49;63.13;101001.25;5058176;28;69587;-42
2024/01/24 09:25:11;;;;;;;9.18;5.20;;;;;;;33.44;63.60;101001.16;5044280;28;66711;-41
2024/01/24 09:27:44;;;;;;;12.70;5.63;;;;;;;33.34;64.02;100993.56;5056723;28;69523;-42
2024/01/24 09:30:15;;;;;;;8.52;5.70;;;;;;;33.30;64.14;100993.22;5049181;28;66605;-40
2024/01/24 09:32:46;;;;;;;12.73;5.13;;;;;;;33.30;64.16;101004.09;5059408;28;68975;-40
2024/01/24 09:35:17;;;;;;;10.60;5.15;;;;;;;33.17;64.65;100987.16;5039555;28;65682;-40
2024/01/24 09:37:48;;;;;;;5.15;4.40;;;;;;;33.38;64.15;101011.09;5048329;28;69858;-43
2024/01/24 09:40:19;;;;;;;5.13;4.33;;;;;;;33.52;63.57;101008.97;5041269;28;65828;-40
2024/01/24 09:42:50;;;;;;;9.07;4.22;;;;;;;33.61;63.83;100999.44;5044053;28;69769;-42
2024/01/24 09:45:22;;;;;;;9.00;4.33;;;;;;;33.42;63.27;100962.50;5040557;28;65591;-42
2024/01/24 09:47:57;;;;;;;4.53;4.13;;;;;;;33.77;63.56;101004.16;5054800;28;69619;-40
2024/01/24 09:50:28;;;;;;;11.40;4.13;;;;;;;33.78;63.29;101000.34;5058443;28;66285;-41
2024/01/24 09:53:03;;;;;;;8.48;4.63;;;;;;;33.73;63.12;100993.97;5076693;28;70106;-42
2024/01/24 09:55:34;;;;;;;4.90;3.85;;;;;;;33.87;63.02;101014.44;5060477;28;65631;-40
2024/01/24 09:58:05;;;;;;;8.50;4.85;;;;;;;33.96;62.85;101017.63;5041703;28;70982;-42
2024/01/24 10:00:41;;;;;;;7.35;4.13;;;;;;;34.00;62.75;101018.81;5040625;28;66340;-41
2024/01/24 10:03:12;;;;;;;;;;;;;;;33.86;62.63;101018.22;5051240;28;70531;-42
2024/01/24 10:05:45;;;;;;;9.73;4.43;;;;;;;33.94;62.28;101001.53;5056070;28;66902;-42
2024/01/24 10:08:16;;;;;;;7.78;4.25;;;;;;;34.06;62.52;101023.31;5031888;28;70325;-41
2024/01/24 10:10:47;;;;;;;10.20;4.25;;;;;;;33.96;62.78;101013.03;5041096;28;66118;-40
2024/01/24 10:13:17;;;;;;;9.63;4.55;;;;;;;34.06;62.26;101028.78;5038406;28;69949;-41
2024/01/24 10:15:48;;;;;;;4.75;3.95;;;;;;;34.06;62.54;101023.31;5042742;28;65136;-41
2024/01/24 10:18:19;;;;;;;8.53;4.40;;;;;;;34.07;62.37;101022.25;5040258;28;70235;-41
2024/01/24 10:20:50;;;;;;;12.87;4.57;;;;;;;33.87;62.68;101030.75;5042241;28;66125;-38
2024/01/24 10:23:22;;;;;;;13.45;5.82;;;;;;;33.70;62.84;101036.09;5042265;28;70028;-39
2024/01/24 10:25:53;;;;;;;13.17;5.50;;;;;;;33.54;63.58;101042.22;5042662;28;66189;-39
2024/01/24 10:28:25;;;;;;;18.77;5.38;;;;;;;33.06;63.98;100996.94;5032303;28;70706;-40
2024/01/24 10:30:56;;;;;;;26.85;5.63;;;;;;;33.27;64.73;101039.09;5061776;28;66112;-38
2024/01/24 10:33:30;;;;;;;16.93;5.90;;;;;;;33.21;65.03;101049.00;5045036;28;69847;-40
2024/01/24 10:36:01;;;;;;;13.30;5.75;;;;;;;33.14;65.21;101059.13;5047105;28;66693;-40
2024/01/24 10:38:47;;;;;;;;;;;;;;;32.92;66.06;101056.06;5055005;28;69899;-40
2024/01/24 10:41:22;;;;;;;18.85;6.13;;;;;;;32.97;65.59;101056.22;5041285;28;65983;-42
2024/01/24 10:43:57;;;;;;;16.73;6.32;;;;;;;32.93;65.82;101058.56;5057520;28;70399;-41
2024/01/24 10:46:28;;;;;;;21.77;7.60;;;;;;;32.91;65.93;101066.09;5056762;28;66240;-41
2024/01/24 10:49:00;;;;;;;23.83;6.05;;;;;;;32.87;66.17;101067.59;5055038;28;69686;-39
2024/01/24 10:51:33;;;;;;;23.23;6.18;;;;;;;32.83;66.41;101063.72;5058338;28;66491;-40
2024/01/24 10:54:07;;;;;;;19.85;6.65;;;;;;;32.82;66.56;101072.06;5048576;28;69898;-41
2024/01/24 10:56:41;;;;;;;17.70;6.45;;;;;;;32.77;66.65;101074.69;5052953;28;66563;-39
2024/01/24 10:59:14;;;;;;;25.13;7.43;;;;;;;32.69;66.29;101073.09;5057616;28;70432;-40
2024/01/24 11:01:47;;;;;;;23.30;6.55;;;;;;;32.62;66.86;101078.59;5060035;28;65349;-40
2024/01/24 11:04:21;;;;;;;16.25;6.20;;;;;;;32.68;67.14;101090.44;5036000;28;70276;-40
2024/01/24 11:07:06;;;;;;;15.88;6.18;;;;;;;32.69;67.44;101105.69;5043261;28;66310;-38
2024/01/24 11:09:53;;;;;;;15.70;4.85;;;;;;;32.65;67.26;101110.75;5040647;28;69159;-40
2024/01/24 11:12:24;;;;;;;17.90;5.80;;;;;;;32.66;67.88;101111.56;5051923;28;66720;-45
2024/01/24 11:15:08;;;;;;;12.93;5.30;;;;;;;32.60;67.73;101112.50;5052833;28;70608;-41
2024/01/24 11:17:39;;;;;;;22.52;6.68;;;;;;;32.58;68.06;101118.13;5034367;28;65353;-39
2024/01/24 11:20:11;;;;;;;9.43;4.80;;;;;;;32.65;66.94;101123.47;5044371;28;70855;-40
2024/01/24 11:22:43;;;;;;;10.93;5.00;;;;;;;32.71;66.59;101120.72;5059780;28;66447;-40
2024/01/24 11:25:14;;;;;;;10.90;5.25;;;;;;;32.86;66.42;101139.31;5060667;28;69971;-43
2024/01/24 11:27:55;;;;;;;10.55;5.07;;;;;;;32.79;66.15;101116.84;5051056;28;65847;-41
2024/01/24 11:30:28;;;;;;;15.40;5.82;;;;;;;32.99;66.59;101143.78;5058625;28;69405;-41
2024/01/24 11:33:00;;;;;;;11.05;5.68;;;;;;;33.07;65.97;101145.34;5060797;28;66542;-40
2024/01/24 11:35:41;;;;;;;9.50;5.88;;;;;;;33.06;66.17;101141.00;5026790;28;69240;-41
2024/01/24 11:38:20;;;;;;;16.40;6.28;;;;;;;33.14;66.39;101156.97;5053112;28;66251;-40
2024/01/24 11:41:08;;;;;;;14.23;7.15;;;;;;;32.83;66.50;101101.75;5034904;28;70449;-41